createdAt,value
2023-03-31T00:02:13.899Z,12.29
2023-03-31T00:04:46.688Z,12.31
2023-03-31T00:07:14.692Z,12.29
2023-03-31T00:09:46.418Z,12.29
2023-03-31T00:12:13.905Z,12.27
2023-03-31T00:14:42.383Z,12.25
2023-03-31T00:17:09.523Z,12.23
2023-03-31T00:19:37.414Z,12.22
2023-03-31T00:22:05.398Z,12.22
2023-03-31T00:24:33.052Z,12.23
2023-03-31T00:27:00.709Z,12.23
2023-03-31T00:29:28.066Z,12.22
2023-03-31T00:31:56.584Z,12.21
2023-03-31T00:34:23.387Z,12.21
2023-03-31T00:36:50.191Z,12.20
2023-03-31T00:39:19.214Z,12.19
2023-03-31T00:41:46.043Z,12.18
2023-03-31T00:44:15.064Z,12.19
2023-03-31T00:46:46.666Z,12.18
2023-03-31T00:49:22.911Z,12.16
2023-03-31T00:51:52.767Z,12.15
2023-03-31T00:54:23.424Z,12.14
2023-03-31T00:56:53.322Z,12.13
2023-03-31T00:59:27.530Z,12.12
2023-03-31T01:01:59.373Z,12.11
2023-03-31T01:04:28.899Z,12.08
2023-03-31T01:07:02.414Z,12.06
2023-03-31T01:09:35.011Z,12.06
2023-03-31T01:12:06.227Z,12.05
2023-03-31T01:14:34.228Z,12.01
2023-03-31T01:17:02.722Z,11.99
2023-03-31T01:19:42.776Z,11.97
2023-03-31T01:22:46.064Z,11.96
2023-03-31T01:25:52.306Z,11.96
2023-03-31T01:28:29.659Z,11.96
2023-03-31T01:31:27.545Z,11.97
2023-03-31T01:34:27.118Z,11.96
2023-03-31T01:37:26.011Z,11.97
2023-03-31T01:40:40.674Z,11.96
2023-03-31T01:43:17.241Z,11.97
2023-03-31T01:45:56.696Z,11.95
2023-03-31T01:48:34.125Z,11.97
2023-03-31T01:51:07.093Z,11.98
2023-03-31T01:53:44.542Z,11.99
2023-03-31T01:56:18.337Z,11.98
2023-03-31T01:58:52.199Z,11.97
2023-03-31T02:01:25.483Z,11.97
2023-03-31T02:03:58.453Z,11.98
2023-03-31T02:06:30.858Z,11.98
2023-03-31T02:09:02.792Z,11.97
2023-03-31T02:11:32.095Z,11.96
2023-03-31T02:14:05.029Z,11.96
2023-03-31T02:16:35.432Z,11.96
2023-03-31T02:19:06.108Z,11.95
2023-03-31T02:21:34.817Z,11.95
2023-03-31T02:24:04.538Z,11.95
2023-03-31T02:26:37.118Z,11.94
2023-03-31T02:29:05.600Z,11.91
2023-03-31T02:31:41.583Z,11.92
2023-03-31T02:34:09.637Z,11.91
2023-03-31T02:36:37.491Z,11.90
2023-03-31T02:39:08.804Z,11.91
2023-03-31T02:41:36.033Z,11.89
2023-03-31T02:44:05.617Z,11.89
2023-03-31T02:46:33.468Z,11.90
2023-03-31T02:49:03.384Z,11.88
2023-03-31T02:51:51.615Z,11.89
2023-03-31T02:54:51.495Z,11.88
2023-03-31T02:57:50.015Z,11.88
2023-03-31T03:00:26.464Z,11.86
2023-03-31T03:03:13.004Z,11.83
2023-03-31T03:05:49.917Z,11.83
2023-03-31T03:08:23.404Z,11.82
2023-03-31T03:11:01.853Z,11.82
2023-03-31T03:13:33.474Z,11.82
2023-03-31T03:16:06.448Z,11.84
2023-03-31T03:18:33.617Z,11.83
2023-03-31T03:21:00.430Z,11.85
2023-03-31T03:23:27.334Z,11.83
2023-03-31T03:25:56.002Z,11.83
2023-03-31T03:28:23.189Z,11.84
2023-03-31T03:30:49.999Z,11.82
2023-03-31T03:33:18.512Z,11.81
2023-03-31T03:35:45.663Z,11.83
2023-03-31T03:38:12.449Z,11.85
2023-03-31T03:40:40.959Z,11.83
2023-03-31T03:43:07.764Z,11.85
2023-03-31T03:45:34.570Z,11.85
2023-03-31T03:48:01.402Z,11.84
2023-03-31T03:50:29.570Z,11.83
2023-03-31T03:52:57.910Z,11.84
2023-03-31T03:55:24.612Z,11.84
2023-03-31T03:57:51.409Z,11.85
2023-03-31T04:00:19.953Z,11.85
2023-03-31T04:02:47.211Z,11.84
2023-03-31T04:05:15.603Z,11.86
2023-03-31T04:07:45.145Z,11.87
2023-03-31T04:10:12.055Z,11.85
2023-03-31T04:12:38.829Z,11.86
2023-03-31T04:15:06.816Z,11.85
2023-03-31T04:17:34.994Z,11.84
2023-03-31T04:20:05.663Z,11.81
2023-03-31T04:22:35.604Z,11.77
2023-03-31T04:25:05.320Z,11.76
2023-03-31T04:27:33.831Z,11.74
2023-03-31T04:30:00.658Z,11.72
2023-03-31T04:32:28.419Z,11.74
2023-03-31T04:35:03.510Z,11.73
2023-03-31T04:37:35.014Z,11.73
2023-03-31T04:40:11.574Z,11.72
2023-03-31T04:42:39.854Z,11.69
2023-03-31T04:45:07.511Z,11.70
2023-03-31T04:47:34.368Z,11.71
2023-03-31T04:50:01.469Z,11.69
2023-03-31T04:52:28.609Z,11.73
2023-03-31T04:54:55.468Z,11.70
2023-03-31T04:57:22.282Z,11.68
2023-03-31T04:59:50.513Z,11.68
2023-03-31T05:02:25.265Z,11.69
2023-03-31T05:04:53.005Z,11.66
2023-03-31T05:07:20.593Z,11.65
2023-03-31T05:09:47.490Z,11.61
2023-03-31T05:12:14.341Z,11.59
2023-03-31T05:14:41.052Z,11.58
2023-03-31T05:17:09.167Z,11.59
2023-03-31T05:19:36.235Z,11.58
2023-03-31T05:22:03.087Z,11.57
2023-03-31T05:24:30.165Z,11.56
2023-03-31T05:26:58.416Z,11.56
2023-03-31T05:29:25.309Z,11.56
2023-03-31T05:31:54.013Z,11.56
2023-03-31T05:34:22.142Z,11.57
2023-03-31T05:36:50.539Z,11.56
2023-03-31T05:39:17.335Z,11.56
2023-03-31T05:41:44.113Z,11.56
2023-03-31T05:44:11.330Z,11.53
2023-03-31T05:46:38.450Z,11.53
2023-03-31T05:49:06.471Z,11.51
2023-03-31T05:51:34.729Z,11.51
2023-03-31T05:54:01.461Z,11.50
2023-03-31T05:56:28.187Z,11.50
2023-03-31T05:58:54.912Z,11.50
2023-03-31T06:01:23.292Z,11.51
2023-03-31T06:03:50.942Z,11.53
2023-03-31T06:06:18.293Z,11.53
2023-03-31T06:08:47.580Z,11.52
2023-03-31T06:11:16.719Z,11.52
2023-03-31T06:13:45.305Z,11.52
2023-03-31T06:16:13.627Z,11.54
2023-03-31T06:18:41.363Z,11.55
2023-03-31T06:21:11.242Z,11.58
2023-03-31T06:23:38.240Z,11.59
2023-03-31T06:26:08.505Z,11.60
2023-03-31T06:28:35.967Z,11.60
2023-03-31T06:31:04.593Z,11.60
2023-03-31T06:33:31.767Z,11.62
2023-03-31T06:35:59.665Z,11.61
2023-03-31T06:38:26.430Z,11.63
2023-03-31T06:40:53.691Z,11.62
2023-03-31T06:43:21.953Z,11.64
2023-03-31T06:45:50.546Z,11.63
2023-03-31T06:48:18.654Z,11.64
2023-03-31T06:50:45.519Z,11.63
2023-03-31T06:53:12.377Z,11.65
2023-03-31T06:55:40.725Z,11.66
2023-03-31T06:58:07.438Z,11.68
2023-03-31T07:00:35.619Z,11.69
2023-03-31T07:03:04.002Z,11.68
2023-03-31T07:05:32.121Z,11.68
2023-03-31T07:07:59.892Z,11.69
2023-03-31T07:10:29.616Z,11.69
2023-03-31T07:12:58.363Z,11.73
2023-03-31T07:15:26.064Z,11.73
2023-03-31T07:18:02.901Z,11.74
2023-03-31T07:20:30.760Z,11.74
2023-03-31T07:22:57.684Z,11.74
2023-03-31T07:25:25.082Z,11.76
2023-03-31T07:27:51.965Z,11.77
2023-03-31T07:30:20.269Z,11.79
2023-03-31T07:32:47.964Z,11.80
2023-03-31T07:35:17.228Z,11.82
2023-03-31T07:37:47.432Z,11.84
2023-03-31T07:40:17.419Z,11.84
2023-03-31T07:42:46.020Z,11.84
2023-03-31T07:45:16.701Z,11.84
2023-03-31T07:47:44.858Z,11.85
2023-03-31T07:50:13.202Z,11.86
2023-03-31T07:52:44.119Z,11.85
2023-03-31T07:55:13.490Z,11.85
2023-03-31T07:57:42.574Z,11.86
2023-03-31T08:00:12.537Z,11.85
2023-03-31T08:02:40.187Z,11.86
2023-03-31T08:05:07.592Z,11.86
2023-03-31T08:07:35.108Z,11.87
2023-03-31T08:10:06.998Z,11.88
2023-03-31T08:12:33.848Z,11.90
2023-03-31T08:15:01.490Z,11.91
2023-03-31T08:17:28.428Z,11.92
2023-03-31T08:19:55.513Z,11.93
2023-03-31T08:22:23.465Z,11.94
2023-03-31T08:24:50.235Z,11.96
2023-03-31T08:27:18.385Z,11.99
2023-03-31T08:29:45.279Z,12.00
2023-03-31T08:32:12.274Z,12.04
2023-03-31T08:34:38.969Z,12.09
2023-03-31T08:37:06.155Z,12.13
2023-03-31T08:39:34.201Z,12.18
2023-03-31T08:42:03.018Z,12.22
2023-03-31T08:44:36.837Z,12.25
2023-03-31T08:47:07.730Z,12.31
2023-03-31T08:49:41.745Z,12.34
2023-03-31T08:52:13.741Z,12.41
2023-03-31T08:54:43.841Z,12.44
2023-03-31T08:57:17.636Z,12.46
2023-03-31T08:59:47.178Z,12.50
2023-03-31T09:02:26.156Z,12.53
2023-03-31T09:05:18.122Z,12.57
2023-03-31T09:07:58.819Z,12.61
2023-03-31T09:10:39.532Z,12.64
2023-03-31T09:13:21.344Z,12.66
2023-03-31T09:15:54.279Z,12.67
2023-03-31T09:18:28.898Z,12.70
2023-03-31T09:21:02.766Z,12.75
2023-03-31T09:23:36.387Z,12.77
2023-03-31T09:26:04.893Z,12.79
2023-03-31T09:28:37.104Z,12.82
2023-03-31T09:31:13.172Z,12.83
2023-03-31T09:33:45.022Z,12.87
2023-03-31T09:36:16.580Z,12.88
2023-03-31T09:38:44.298Z,12.91
2023-03-31T09:41:12.931Z,12.92
2023-03-31T09:43:47.518Z,12.95
2023-03-31T09:46:20.436Z,13.00
2023-03-31T09:48:55.738Z,13.04
2023-03-31T09:51:27.472Z,13.05
2023-03-31T09:53:58.610Z,13.09
2023-03-31T09:56:49.107Z,13.12
2023-03-31T09:59:17.983Z,13.14
2023-03-31T10:01:49.760Z,13.17
2023-03-31T10:04:24.803Z,13.21
2023-03-31T10:06:53.708Z,13.25
2023-03-31T10:09:24.485Z,13.27
2023-03-31T10:11:56.799Z,13.29
2023-03-31T10:14:28.056Z,13.28
2023-03-31T10:16:57.366Z,13.25
2023-03-31T10:19:28.400Z,13.24
2023-03-31T10:22:00.089Z,13.21
2023-03-31T10:24:37.757Z,13.20
2023-03-31T10:27:06.853Z,13.18
2023-03-31T10:29:35.554Z,13.17
2023-03-31T10:32:06.205Z,13.14
2023-03-31T10:34:42.449Z,13.14
2023-03-31T10:37:17.131Z,13.14
2023-03-31T10:39:45.926Z,13.16
2023-03-31T10:42:20.909Z,13.17
2023-03-31T10:44:47.641Z,13.19
2023-03-31T10:47:21.545Z,13.23
2023-03-31T10:49:51.925Z,13.25
2023-03-31T10:52:21.221Z,13.32
2023-03-31T10:54:49.936Z,13.37
2023-03-31T10:57:18.816Z,13.39
2023-03-31T11:00:05.738Z,13.46
2023-03-31T11:02:56.753Z,13.52
2023-03-31T11:05:29.421Z,13.57
2023-03-31T11:08:12.342Z,13.59
2023-03-31T11:11:00.633Z,13.61
2023-03-31T11:13:40.570Z,13.64
2023-03-31T11:16:18.790Z,13.67
2023-03-31T11:18:59.594Z,13.68
2023-03-31T11:21:36.767Z,13.69
2023-03-31T11:24:16.369Z,13.68
2023-03-31T11:26:51.590Z,13.69
2023-03-31T11:29:29.179Z,13.72
2023-03-31T11:31:59.316Z,13.76
2023-03-31T11:34:58.197Z,13.78
2023-03-31T11:37:42.969Z,13.78
2023-03-31T11:40:21.911Z,13.80
2023-03-31T11:42:52.294Z,13.83
2023-03-31T11:45:24.411Z,13.87
2023-03-31T11:47:57.736Z,13.89
2023-03-31T11:50:29.414Z,13.91
2023-03-31T11:53:01.138Z,13.95
2023-03-31T11:55:32.011Z,13.98
2023-03-31T11:58:04.227Z,14.03
2023-03-31T12:00:34.905Z,14.05
2023-03-31T12:03:09.794Z,14.08
2023-03-31T12:05:42.635Z,14.08
2023-03-31T12:08:16.953Z,14.10
2023-03-31T12:10:49.272Z,14.07
2023-03-31T12:13:40.959Z,14.06
2023-03-31T12:16:14.834Z,14.07
2023-03-31T12:18:48.199Z,14.09
2023-03-31T12:21:17.501Z,14.11
2023-03-31T12:23:45.750Z,14.11
2023-03-31T12:26:28.119Z,14.14
2023-03-31T12:28:58.957Z,14.15
2023-03-31T12:31:27.821Z,14.14
2023-03-31T12:33:58.637Z,14.15
2023-03-31T12:36:40.669Z,14.13
2023-03-31T12:39:23.604Z,14.11
2023-03-31T12:42:08.704Z,14.08
2023-03-31T12:44:50.776Z,14.08
2023-03-31T12:47:34.059Z,14.08
2023-03-31T12:50:18.421Z,14.08
2023-03-31T12:52:57.357Z,14.06
2023-03-31T12:55:37.807Z,14.00
2023-03-31T12:58:37.655Z,13.95
2023-03-31T13:01:08.110Z,13.92
2023-03-31T13:04:10.211Z,13.88
2023-03-31T13:06:54.066Z,13.86
2023-03-31T13:09:57.850Z,13.85
2023-03-31T13:12:28.237Z,13.83
2023-03-31T13:15:00.189Z,13.81
2023-03-31T13:17:31.008Z,13.83
2023-03-31T13:20:17.421Z,13.84
2023-03-31T13:22:48.312Z,13.86
2023-03-31T13:25:37.654Z,13.84
2023-03-31T13:28:26.956Z,13.84
2023-03-31T13:30:57.079Z,13.83
2023-03-31T13:33:28.799Z,13.83
2023-03-31T13:36:19.341Z,13.81
2023-03-31T13:38:58.969Z,13.77
2023-03-31T13:41:41.746Z,13.73
2023-03-31T13:44:32.469Z,13.69
2023-03-31T13:47:18.255Z,13.65
2023-03-31T13:49:55.954Z,13.62
2023-03-31T13:52:38.108Z,13.61
2023-03-31T13:55:33.819Z,13.55
2023-03-31T13:58:34.514Z,13.49
2023-03-31T14:01:41.243Z,13.44
2023-03-31T14:04:30.027Z,13.40
2023-03-31T14:06:59.647Z,13.40
2023-03-31T14:09:31.612Z,13.40
2023-03-31T14:11:59.000Z,13.40
2023-03-31T14:14:30.474Z,13.41
2023-03-31T14:17:00.586Z,13.41
2023-03-31T14:19:55.869Z,13.41
2023-03-31T14:22:32.972Z,13.40
2023-03-31T14:25:11.646Z,13.39
2023-03-31T14:27:51.057Z,13.38
2023-03-31T14:30:29.413Z,13.37
2023-03-31T14:33:08.576Z,13.32
2023-03-31T14:35:58.125Z,13.30
2023-03-31T14:38:28.285Z,13.26
2023-03-31T14:40:57.665Z,13.20
2023-03-31T14:43:27.726Z,13.15
2023-03-31T14:46:00.030Z,13.09
2023-03-31T14:48:28.561Z,13.06
2023-03-31T14:50:58.248Z,13.03
2023-03-31T14:53:26.525Z,13.01
2023-03-31T14:56:03.076Z,13.00
2023-03-31T14:58:35.024Z,12.99
2023-03-31T15:01:07.033Z,12.98
2023-03-31T15:03:35.293Z,13.00
2023-03-31T15:06:04.774Z,12.96
2023-03-31T15:08:33.020Z,12.92
2023-03-31T15:11:13.047Z,12.87
2023-03-31T15:13:46.802Z,12.85
2023-03-31T15:16:29.981Z,12.81
2023-03-31T15:18:59.059Z,12.81
2023-03-31T15:21:27.837Z,12.80
2023-03-31T15:23:56.188Z,12.79
2023-03-31T15:26:40.624Z,12.79
2023-03-31T15:29:12.709Z,12.80
2023-03-31T15:31:41.776Z,12.79
2023-03-31T15:34:15.098Z,12.78
2023-03-31T15:36:43.774Z,12.79
2023-03-31T15:39:11.702Z,12.80
2023-03-31T15:41:38.527Z,12.79
2023-03-31T15:44:07.693Z,12.82
2023-03-31T15:46:56.528Z,12.83
2023-03-31T15:49:25.521Z,12.83
2023-03-31T15:51:55.712Z,12.82
2023-03-31T15:54:31.509Z,12.82
2023-03-31T15:57:01.348Z,12.81
2023-03-31T16:02:19.187Z,12.77
2023-03-31T16:04:49.326Z,12.73
2023-03-31T16:07:19.935Z,12.71
2023-03-31T16:09:52.432Z,12.68
2023-03-31T16:12:23.392Z,12.63
2023-03-31T16:14:55.818Z,12.62
2023-03-31T16:17:34.013Z,12.60
2023-03-31T16:20:08.796Z,12.57
2023-03-31T16:22:40.245Z,12.55
2023-03-31T16:25:13.597Z,12.52
2023-03-31T16:27:43.495Z,12.49
2023-03-31T16:30:13.936Z,12.46
2023-03-31T16:33:00.962Z,12.41
2023-03-31T16:35:33.508Z,12.39
2023-03-31T16:38:01.930Z,12.40
2023-03-31T16:40:29.890Z,12.38
2023-03-31T16:43:12.094Z,12.35
2023-03-31T16:45:38.866Z,12.33
2023-03-31T16:50:56.353Z,12.31
2023-03-31T16:53:24.893Z,12.29
2023-03-31T16:55:51.638Z,12.29
2023-03-31T16:58:20.038Z,12.29
2023-03-31T17:00:47.149Z,12.29
2023-03-31T17:03:16.605Z,12.29
2023-03-31T17:05:44.951Z,12.25
2023-03-31T17:08:12.990Z,12.22
2023-03-31T17:10:42.015Z,12.19
2023-03-31T17:13:09.784Z,12.14
2023-03-31T17:15:37.833Z,12.12
2023-03-31T17:18:05.208Z,12.13
2023-03-31T17:20:38.988Z,12.12
2023-03-31T17:23:06.572Z,12.10
2023-03-31T17:25:34.564Z,12.09
2023-03-31T17:28:01.938Z,12.08
2023-03-31T17:30:28.819Z,12.08
2023-03-31T17:32:56.328Z,12.07
2023-03-31T17:35:25.351Z,12.07
2023-03-31T17:37:56.322Z,12.06
2023-03-31T17:40:25.854Z,12.04
2023-03-31T17:42:54.056Z,12.02
2023-03-31T17:45:20.844Z,11.98
2023-03-31T17:47:47.711Z,11.98
2023-03-31T17:50:14.561Z,11.94
2023-03-31T17:52:41.285Z,11.91
2023-03-31T17:55:10.314Z,11.88
2023-03-31T17:57:37.601Z,11.88
2023-03-31T18:00:06.142Z,11.88
2023-03-31T18:02:33.390Z,11.87
2023-03-31T18:05:00.654Z,11.87
2023-03-31T18:07:28.411Z,11.88
2023-03-31T18:09:55.116Z,11.88
2023-03-31T18:12:23.250Z,11.88
2023-03-31T18:14:50.752Z,11.86
2023-03-31T18:17:17.691Z,11.83
2023-03-31T18:19:44.501Z,11.82
2023-03-31T18:22:11.585Z,11.80
2023-03-31T18:24:39.139Z,11.80
2023-03-31T18:27:06.441Z,11.81
2023-03-31T18:29:34.622Z,11.80
2023-03-31T18:32:01.925Z,11.80
2023-03-31T18:34:29.108Z,11.77
2023-03-31T18:36:55.830Z,11.74
2023-03-31T18:39:22.582Z,11.72
2023-03-31T18:41:49.711Z,11.70
2023-03-31T18:44:17.662Z,11.69
2023-03-31T18:46:46.108Z,11.68
2023-03-31T18:49:14.467Z,11.67
2023-03-31T18:51:41.238Z,11.67
2023-03-31T18:54:08.008Z,11.67
2023-03-31T18:56:34.739Z,11.66
2023-03-31T18:59:04.186Z,11.66
2023-03-31T19:01:32.682Z,11.65
2023-03-31T19:04:00.984Z,11.65
2023-03-31T19:06:27.766Z,11.65
2023-03-31T19:08:55.977Z,11.64
2023-03-31T19:11:23.860Z,11.66
2023-03-31T19:13:50.671Z,11.65
2023-03-31T19:16:18.685Z,11.62
2023-03-31T19:18:45.551Z,11.60
2023-03-31T19:21:13.685Z,11.59
2023-03-31T19:23:40.769Z,11.59
2023-03-31T19:26:07.832Z,11.58
2023-03-31T19:28:34.981Z,11.57
2023-03-31T19:31:04.708Z,11.56
2023-03-31T19:33:31.758Z,11.56
2023-03-31T19:35:59.126Z,11.57
2023-03-31T19:38:31.911Z,11.56
2023-03-31T19:41:00.084Z,11.56
2023-03-31T19:43:29.336Z,11.55
2023-03-31T19:45:57.991Z,11.55
2023-03-31T19:48:26.627Z,11.54
2023-03-31T19:50:54.789Z,11.53
2023-03-31T19:53:24.618Z,11.53
2023-03-31T19:55:57.744Z,11.53
2023-03-31T19:58:24.907Z,11.52
2023-03-31T20:00:52.571Z,11.52
2023-03-31T20:03:19.667Z,11.51
2023-03-31T20:05:46.824Z,11.51
2023-03-31T20:08:14.174Z,11.52
2023-03-31T20:10:41.468Z,11.50
2023-03-31T20:13:09.954Z,11.47
2023-03-31T20:15:37.880Z,11.46
2023-03-31T20:18:05.924Z,11.46
2023-03-31T20:20:33.073Z,11.46
2023-03-31T20:22:59.995Z,11.46
2023-03-31T20:25:27.080Z,11.44
2023-03-31T20:27:53.876Z,11.44
2023-03-31T20:30:22.060Z,11.45
2023-03-31T20:32:48.875Z,11.44
2023-03-31T20:35:15.868Z,11.43
2023-03-31T20:37:42.798Z,11.41
2023-03-31T20:40:11.835Z,11.42
2023-03-31T20:42:38.648Z,11.39
2023-03-31T20:45:06.705Z,11.39
2023-03-31T20:47:35.372Z,11.39
2023-03-31T20:50:04.144Z,11.38
2023-03-31T20:52:30.947Z,11.39
2023-03-31T20:54:57.828Z,11.40
2023-03-31T20:57:26.352Z,11.39
2023-03-31T20:59:53.233Z,11.38
2023-03-31T21:02:20.060Z,11.37
2023-03-31T21:04:50.576Z,11.38
2023-03-31T21:07:18.040Z,11.38
2023-03-31T21:09:44.964Z,11.38
2023-03-31T21:12:11.689Z,11.37
2023-03-31T21:14:38.380Z,11.37
2023-03-31T21:17:05.409Z,11.36
2023-03-31T21:19:32.490Z,11.36
2023-03-31T21:22:00.796Z,11.36
2023-03-31T21:24:27.795Z,11.34
2023-03-31T21:26:55.026Z,11.34
2023-03-31T21:29:21.743Z,11.32
2023-03-31T21:31:50.162Z,11.33
2023-03-31T21:34:17.281Z,11.32
2023-03-31T21:36:44.099Z,11.33
2023-03-31T21:39:12.162Z,11.31
2023-03-31T21:41:40.556Z,11.30
2023-03-31T21:44:08.970Z,11.31
2023-03-31T21:46:36.157Z,11.32
2023-03-31T21:49:03.274Z,11.32
2023-03-31T21:51:30.749Z,11.30
2023-03-31T21:53:57.950Z,11.30
2023-03-31T21:56:32.088Z,11.28
2023-03-31T21:58:59.914Z,11.29
2023-03-31T22:01:26.803Z,11.27
2023-03-31T22:03:54.222Z,11.26
2023-03-31T22:06:24.739Z,11.23
2023-03-31T22:08:51.570Z,11.24
2023-03-31T22:11:18.289Z,11.21
2023-03-31T22:13:46.406Z,11.20
2023-03-31T22:16:18.666Z,11.21
2023-03-31T22:18:47.023Z,11.21
2023-03-31T22:21:15.807Z,11.21
2023-03-31T22:23:42.574Z,11.20
2023-03-31T22:26:09.402Z,11.18
2023-03-31T22:28:36.160Z,11.18
2023-03-31T22:31:04.327Z,11.20
2023-03-31T22:33:31.349Z,11.18
2023-03-31T22:35:58.144Z,11.18
2023-03-31T22:38:24.990Z,11.17
2023-03-31T22:40:51.800Z,11.18
2023-03-31T22:43:18.937Z,11.16
2023-03-31T22:45:45.730Z,11.17
2023-03-31T22:48:14.210Z,11.17
2023-03-31T22:50:43.400Z,11.17
2023-03-31T22:53:10.910Z,11.18
2023-03-31T22:55:42.391Z,11.17
2023-03-31T22:58:09.637Z,11.16
2023-03-31T23:00:38.337Z,11.17
2023-03-31T23:03:05.559Z,11.19
2023-03-31T23:05:34.804Z,11.16
2023-03-31T23:08:02.175Z,11.15
2023-03-31T23:10:29.202Z,11.15
2023-03-31T23:12:56.024Z,11.15
2023-03-31T23:15:22.790Z,11.14
2023-03-31T23:17:49.624Z,11.15
2023-03-31T23:20:17.396Z,11.15
2023-03-31T23:22:45.509Z,11.14
2023-03-31T23:25:12.343Z,11.16
2023-03-31T23:27:40.361Z,11.15
2023-03-31T23:30:08.441Z,11.15
2023-03-31T23:32:35.370Z,11.14
2023-03-31T23:35:02.190Z,11.14
2023-03-31T23:37:28.889Z,11.16
2023-03-31T23:39:57.576Z,11.16
2023-03-31T23:42:24.282Z,11.16
2023-03-31T23:44:51.222Z,11.15
2023-03-31T23:47:18.141Z,11.14
2023-03-31T23:49:44.905Z,11.13
2023-03-31T23:52:11.637Z,11.13
2023-03-31T23:54:38.626Z,11.13
2023-03-31T23:57:07.358Z,11.14
2023-03-31T23:59:34.389Z,11.15
